Time;durP1;ratioP1;P1;durP2;ratioP2;P2;SDS_P1;SDS_P2;PMS_P1;PMS_P2;Temp;Humidity;BMP_temperature;BMP_pressure;BME280_temperature;BME280_humidity;BME280_pressure;Samples;Min_cycle;Max_cycle;Signal;HPM_P1;HPM_P2
2022/06/01 00:00:23;;;;;;;8.73;8.02;;;;;;;;;;2082875;28;20181;-56
2022/06/01 00:01:23;;;;;;;9.20;8.48;;;;;;;;;;2082393;28;20645;-53
2022/06/01 00:02:26;;;;;;;9.73;8.82;;;;;;;;;;2083174;28;20179;-55
2022/06/01 00:03:29;;;;;;;11.27;9.85;;;;;;;;;;2082236;28;20200;-53
2022/06/01 00:04:30;;;;;;;10.07;9.18;;;;;;;;;;2082133;28;20164;-56
2022/06/01 00:05:30;;;;;;;9.82;9.02;;;;;;;;;;2082459;28;20603;-53
2022/06/01 00:06:30;;;;;;;9.75;8.52;;;;;;;;;;2082419;28;20192;-53
2022/06/01 00:07:31;;;;;;;10.00;9.05;;;;;;;;;;2081859;28;20196;-53
2022/06/01 00:08:31;;;;;;;10.07;9.07;;;;;;;;;;2082831;28;20179;-55
2022/06/01 00:09:31;;;;;;;9.98;9.05;;;;;;;;;;2082867;28;20164;-57
2022/06/01 00:10:32;;;;;;;10.40;9.48;;;;;;;;;;2082854;28;20239;-52
2022/06/01 00:11:32;;;;;;;11.18;9.60;;;;;;;;;;2082917;28;20234;-54
2022/06/01 00:12:34;;;;;;;10.23;9.30;;;;;;;;;;2083094;28;20215;-56
2022/06/01 00:13:35;;;;;;;10.93;9.80;;;;;;;;;;2082895;28;20258;-55
2022/06/01 00:14:35;;;;;;;10.07;9.23;;;;;;;;;;2081445;28;20172;-51
2022/06/01 00:15:35;;;;;;;10.38;9.05;;;;;;;;;;2081750;28;20194;-52
2022/06/01 00:16:35;;;;;;;10.20;9.23;;;;;;;;;;2082328;28;20195;-52
2022/06/01 00:17:36;;;;;;;9.50;8.23;;;;;;;;;;2082413;28;20668;-53
2022/06/01 00:18:36;;;;;;;10.45;9.57;;;;;;;;;;2081147;28;20168;-53
2022/06/01 00:19:37;;;;;;;10.07;9.18;;;;;;;;;;2082740;28;20212;-53
2022/06/01 00:20:37;;;;;;;9.38;8.68;;;;;;;;;;2083590;28;20678;-52
2022/06/01 00:22:11;;;;;;;9.60;8.77;;;;;;;;;;2083580;28;20179;-53
2022/06/01 00:22:58;;;;;;;10.60;9.60;;;;;;;;;;2083519;28;20175;-53
2022/06/01 00:23:58;;;;;;;9.70;8.80;;;;;;;;;;2082660;28;20629;-55
2022/06/01 00:24:58;;;;;;;10.88;9.80;;;;;;;;;;2082254;28;20184;-52
2022/06/01 00:25:59;;;;;;;10.15;9.25;;;;;;;;;;2082141;28;20245;-54
2022/06/01 00:26:59;;;;;;;9.88;8.98;;;;;;;;;;2082425;28;20167;-54
2022/06/01 00:27:59;;;;;;;10.10;9.20;;;;;;;;;;2081933;28;20215;-51
2022/06/01 00:29:00;;;;;;;10.98;9.98;;;;;;;;;;2081935;28;20171;-52
2022/06/01 00:30:00;;;;;;;10.23;9.27;;;;;;;;;;2082616;28;20180;-52
2022/06/01 00:31:00;;;;;;;10.27;9.40;;;;;;;;;;2082667;28;20167;-52
2022/06/01 00:32:01;;;;;;;10.23;9.32;;;;;;;;;;2082403;28;20180;-54
2022/06/01 00:33:02;;;;;;;10.50;9.40;;;;;;;;;;2082821;28;20172;-56
2022/06/01 00:34:03;;;;;;;9.93;9.13;;;;;;;;;;2081408;28;20657;-53
2022/06/01 00:35:04;;;;;;;9.77;8.85;;;;;;;;;;2072364;28;20221;-57
2022/06/01 00:36:07;;;;;;;14.13;10.15;;;;;;;;;;2074041;28;20169;-53
2022/06/01 00:37:08;;;;;;;14.95;10.02;;;;;;;;;;2074167;28;20570;-54
2022/06/01 00:38:08;;;;;;;10.00;8.98;;;;;;;;;;2074604;28;20176;-55
2022/06/01 00:39:08;;;;;;;11.13;9.77;;;;;;;;;;2079653;28;20192;-53
2022/06/01 00:40:10;;;;;;;9.90;9.00;;;;;;;;;;2082896;28;20191;-51
2022/06/01 00:41:10;;;;;;;10.55;9.50;;;;;;;;;;2081780;28;20176;-51
2022/06/01 00:42:13;;;;;;;10.35;9.35;;;;;;;;;;2082275;28;20168;-53
2022/06/01 00:43:21;;;;;;;10.55;9.65;;;;;;;;;;2080278;28;20179;-51
2022/06/01 00:44:21;;;;;;;10.23;9.30;;;;;;;;;;2081870;28;20243;-54
2022/06/01 00:45:23;;;;;;;10.38;9.48;;;;;;;;;;2083171;28;20536;-57
2022/06/01 00:47:37;;;;;;;9.35;8.60;;;;;;;;;;2074131;28;20218;-53
2022/06/01 00:48:40;;;;;;;11.10;10.15;;;;;;;;;;2078791;28;20692;-55
2022/06/01 00:49:42;;;;;;;10.93;9.82;;;;;;;;;;2078830;28;20183;-53
2022/06/01 00:50:42;;;;;;;10.82;9.05;;;;;;;;;;2081438;28;20187;-56
2022/06/01 00:51:43;;;;;;;10.48;9.48;;;;;;;;;;2078783;28;20624;-56
2022/06/01 00:52:46;;;;;;;10.02;9.25;;;;;;;;;;2080393;28;20697;-54
2022/06/01 00:53:48;;;;;;;11.00;9.98;;;;;;;;;;2081604;28;20164;-54
2022/06/01 00:54:48;;;;;;;11.07;9.98;;;;;;;;;;2080675;28;20679;-56
2022/06/01 00:55:51;;;;;;;10.30;9.18;;;;;;;;;;2079570;28;20178;-54
2022/06/01 00:56:54;;;;;;;10.13;9.23;;;;;;;;;;2080447;28;20302;-53
2022/06/01 00:57:58;;;;;;;10.18;9.40;;;;;;;;;;2080917;28;20362;-57
2022/06/01 00:59:00;;;;;;;11.00;10.05;;;;;;;;;;2085809;28;20687;-54
2022/06/01 01:00:03;;;;;;;11.05;10.10;;;;;;;;;;2081082;28;20172;-56
2022/06/01 01:01:05;;;;;;;11.80;10.80;;;;;;;;;;2081295;28;20184;-54
2022/06/01 01:02:06;;;;;;;11.80;10.65;;;;;;;;;;2081652;28;20173;-55
2022/06/01 01:03:10;;;;;;;11.07;10.05;;;;;;;;;;2081386;28;20218;-56
2022/06/01 01:04:10;;;;;;;11.30;10.25;;;;;;;;;;2078501;28;20204;-54
2022/06/01 01:05:12;;;;;;;11.88;10.82;;;;;;;;;;2081348;28;20184;-54
2022/06/01 01:06:13;;;;;;;11.68;10.55;;;;;;;;;;2081180;28;20176;-56
2022/06/01 01:07:13;;;;;;;10.40;9.30;;;;;;;;;;2080815;28;20574;-54
2022/06/01 01:08:13;;;;;;;10.70;9.75;;;;;;;;;;2081124;28;20171;-54
2022/06/01 01:09:13;;;;;;;10.77;9.93;;;;;;;;;;2080582;28;20637;-53
2022/06/01 01:10:15;;;;;;;10.93;10.00;;;;;;;;;;2081856;28;20264;-54
2022/06/01 01:11:18;;;;;;;11.07;10.07;;;;;;;;;;2080929;28;20271;-53
2022/06/01 01:12:18;;;;;;;10.02;9.20;;;;;;;;;;2081320;28;20180;-57
2022/06/01 01:13:18;;;;;;;11.43;10.43;;;;;;;;;;2081575;28;20251;-54
2022/06/01 01:14:21;;;;;;;12.18;10.98;;;;;;;;;;2080314;28;20270;-56
2022/06/01 01:15:23;;;;;;;11.88;10.85;;;;;;;;;;2081086;28;20168;-54
2022/06/01 01:16:24;;;;;;;11.43;10.40;;;;;;;;;;2081534;28;20176;-55
2022/06/01 01:17:24;;;;;;;11.45;10.40;;;;;;;;;;2081683;28;20603;-53
2022/06/01 01:18:29;;;;;;;11.60;10.38;;;;;;;;;;2081831;28;20191;-53
2022/06/01 01:19:36;;;;;;;11.38;10.38;;;;;;;;;;2080933;28;20606;-57
2022/06/01 01:20:42;;;;;;;11.60;10.40;;;;;;;;;;2081614;28;20168;-53
2022/06/01 01:22:10;;;;;;;11.57;10.45;;;;;;;;;;2080052;28;20202;-57
2022/06/01 01:23:31;;;;;;;12.82;9.93;;;;;;;;;;2081092;28;20174;-56
2022/06/01 01:24:38;;;;;;;11.43;10.30;;;;;;;;;;2080396;28;20167;-55
2022/06/01 01:25:39;;;;;;;10.90;10.00;;;;;;;;;;2081033;28;20172;-55
2022/06/01 01:26:40;;;;;;;11.15;10.15;;;;;;;;;;2081532;28;20168;-56
2022/06/01 01:27:40;;;;;;;11.43;10.30;;;;;;;;;;2081525;28;20180;-58
2022/06/01 01:28:41;;;;;;;11.60;10.60;;;;;;;;;;2081749;28;20187;-55
2022/06/01 01:29:42;;;;;;;11.35;10.15;;;;;;;;;;2081081;28;20183;-55
2022/06/01 01:30:48;;;;;;;11.70;10.57;;;;;;;;;;2081769;28;20206;-55
2022/06/01 01:31:48;;;;;;;11.27;10.18;;;;;;;;;;2081731;28;20183;-53
2022/06/01 01:32:49;;;;;;;11.32;10.23;;;;;;;;;;2081446;28;20578;-55
2022/06/01 01:33:50;;;;;;;11.85;10.85;;;;;;;;;;2081330;28;20176;-54
2022/06/01 01:34:50;;;;;;;11.82;10.82;;;;;;;;;;2081051;28;20797;-54
2022/06/01 01:35:52;;;;;;;12.18;11.05;;;;;;;;;;2079835;28;20168;-53
2022/06/01 01:36:55;;;;;;;12.88;11.57;;;;;;;;;;2080938;28;20693;-54
2022/06/01 01:37:57;;;;;;;11.73;10.70;;;;;;;;;;2081174;28;20630;-58
2022/06/01 01:39:07;;;;;;;11.82;10.80;;;;;;;;;;2078188;28;20173;-54
2022/06/01 01:40:07;;;;;;;11.90;10.70;;;;;;;;;;2080500;28;20255;-52
2022/06/01 01:41:13;;;;;;;11.25;10.25;;;;;;;;;;2081927;28;20176;-52
2022/06/01 01:42:13;;;;;;;11.85;10.85;;;;;;;;;;2079456;28;20184;-55
2022/06/01 01:43:14;;;;;;;11.88;10.82;;;;;;;;;;2081317;28;20164;-58
2022/06/01 01:44:26;;;;;;;12.52;11.38;;;;;;;;;;2081964;28;20222;-55
2022/06/01 01:45:28;;;;;;;12.20;11.20;;;;;;;;;;2083186;28;20172;-53
2022/06/01 01:46:30;;;;;;;12.75;11.00;;;;;;;;;;2083206;28;20163;-57
2022/06/01 01:47:30;;;;;;;12.93;11.48;;;;;;;;;;2086170;28;20210;-57
2022/06/01 01:48:32;;;;;;;12.93;11.63;;;;;;;;;;2086059;28;20170;-57
2022/06/01 01:49:34;;;;;;;12.30;11.20;;;;;;;;;;2086666;28;20164;-57
2022/06/01 01:50:34;;;;;;;12.90;11.48;;;;;;;;;;2086334;28;20199;-57
2022/06/01 01:51:34;;;;;;;13.32;11.32;;;;;;;;;;2086701;28;20652;-57
2022/06/01 01:52:35;;;;;;;11.88;10.68;;;;;;;;;;2086094;28;20199;-58
2022/06/01 01:53:36;;;;;;;13.55;12.25;;;;;;;;;;2085346;28;20534;-58
2022/06/01 01:54:44;;;;;;;12.65;11.45;;;;;;;;;;2086077;28;20184;-58
2022/06/01 01:55:54;;;;;;;13.10;11.85;;;;;;;;;;2083915;28;20179;-56
2022/06/01 01:57:08;;;;;;;12.32;11.13;;;;;;;;;;2086015;28;20192;-56
2022/06/01 01:58:15;;;;;;;13.20;11.90;;;;;;;;;;2086191;28;20258;-58
2022/06/01 01:59:51;;;;;;;15.43;12.70;;;;;;;;;;2086837;28;20191;-58
2022/06/01 02:00:57;;;;;;;13.00;11.65;;;;;;;;;;2054416;29;20189;-57
2022/06/01 02:01:58;;;;;;;12.48;11.18;;;;;;;;;;2054344;28;20167;-58
2022/06/01 02:03:03;;;;;;;13.75;12.52;;;;;;;;;;2051600;28;20261;-55
2022/06/01 02:06:03;;;;;;;13.38;11.95;;;;;;;;;;2073865;28;20161;-53
2022/06/01 02:06:55;;;;;;;15.93;12.00;;;;;;;;;;2082928;28;20645;-53
2022/06/01 02:07:59;;;;;;;12.57;11.43;;;;;;;;;;2082952;28;20172;-56
2022/06/01 02:09:07;;;;;;;12.63;11.43;;;;;;;;;;2083221;28;20263;-57
2022/06/01 02:12:46;;;;;;;12.85;11.63;;;;;;;;;;2083728;28;20218;-53
2022/06/01 02:13:48;;;;;;;13.38;12.20;;;;;;;;;;2083169;28;20233;-54
2022/06/01 02:14:51;;;;;;;12.57;11.48;;;;;;;;;;2082270;28;20184;-55
2022/06/01 02:15:52;;;;;;;13.73;12.63;;;;;;;;;;2083042;28;20184;-55
2022/06/01 02:17:01;;;;;;;13.57;12.40;;;;;;;;;;2082956;28;20625;-56
2022/06/01 02:18:09;;;;;;;13.00;12.00;;;;;;;;;;2082963;28;20226;-52
2022/06/01 02:19:13;;;;;;;12.98;11.88;;;;;;;;;;2083544;28;20176;-58
2022/06/01 02:20:16;;;;;;;12.85;11.70;;;;;;;;;;2083940;28;20664;-57
2022/06/01 02:21:21;;;;;;;13.13;12.02;;;;;;;;;;2083574;28;20238;-58
2022/06/01 02:22:21;;;;;;;13.43;12.10;;;;;;;;;;2084013;28;20637;-59
2022/06/01 02:23:21;;;;;;;13.32;12.13;;;;;;;;;;2084453;28;20180;-57
2022/06/01 02:24:23;;;;;;;13.18;11.98;;;;;;;;;;2082952;28;20207;-58
2022/06/01 02:25:24;;;;;;;13.38;12.25;;;;;;;;;;2084370;28;20186;-57
2022/06/01 02:26:26;;;;;;;13.50;12.15;;;;;;;;;;2083638;28;20183;-58
2022/06/01 02:27:26;;;;;;;13.55;12.45;;;;;;;;;;2083871;28;20697;-57
2022/06/01 02:28:26;;;;;;;14.02;12.63;;;;;;;;;;2084126;28;20177;-55
2022/06/01 02:29:39;;;;;;;14.05;12.75;;;;;;;;;;2084200;28;20686;-56
2022/06/01 02:30:40;;;;;;;14.35;13.00;;;;;;;;;;2076236;28;20633;-57
2022/06/01 02:31:41;;;;;;;14.55;13.20;;;;;;;;;;2075104;28;20188;-58
2022/06/01 02:32:42;;;;;;;14.35;13.13;;;;;;;;;;2076514;28;20212;-57
2022/06/01 02:33:44;;;;;;;14.88;13.57;;;;;;;;;;2083748;28;20173;-58
2022/06/01 02:34:45;;;;;;;14.68;13.32;;;;;;;;;;2083418;28;20178;-58
2022/06/01 02:35:48;;;;;;;13.57;12.45;;;;;;;;;;2084016;28;20168;-58
2022/06/01 02:36:49;;;;;;;14.57;13.18;;;;;;;;;;2083896;28;20187;-55
2022/06/01 02:37:52;;;;;;;13.73;12.52;;;;;;;;;;2083827;28;20156;-60
2022/06/01 02:38:54;;;;;;;13.60;12.48;;;;;;;;;;2081045;28;20191;-57
2022/06/01 02:39:54;;;;;;;14.52;13.23;;;;;;;;;;2081657;28;20191;-57
2022/06/01 02:40:55;;;;;;;14.73;13.32;;;;;;;;;;2084118;28;20173;-55
2022/06/01 02:42:26;;;;;;;14.55;13.25;;;;;;;;;;2083205;28;20176;-57
2022/06/01 02:43:27;;;;;;;13.85;12.65;;;;;;;;;;2084594;28;20161;-59
2022/06/01 02:44:27;;;;;;;14.75;13.25;;;;;;;;;;2082800;28;20192;-56
2022/06/01 02:45:28;;;;;;;14.80;13.45;;;;;;;;;;2084089;28;20641;-56
2022/06/01 02:46:28;;;;;;;15.25;13.75;;;;;;;;;;2084987;28;20180;-59
2022/06/01 02:47:32;;;;;;;15.02;13.68;;;;;;;;;;2085077;28;20268;-57
2022/06/01 02:48:33;;;;;;;14.90;13.60;;;;;;;;;;2083542;28;20176;-56
2022/06/01 02:49:33;;;;;;;14.75;13.55;;;;;;;;;;2083184;28;20199;-58
2022/06/01 02:50:34;;;;;;;14.75;13.48;;;;;;;;;;2083349;28;20172;-55
2022/06/01 02:51:34;;;;;;;15.60;14.02;;;;;;;;;;2083356;28;20269;-56
2022/06/01 02:52:36;;;;;;;15.75;14.23;;;;;;;;;;2083413;28;20285;-56
2022/06/01 02:53:37;;;;;;;15.02;13.73;;;;;;;;;;2083433;28;20164;-57
2022/06/01 02:54:38;;;;;;;15.05;13.75;;;;;;;;;;2082822;28;20198;-57
2022/06/01 02:55:38;;;;;;;15.50;14.00;;;;;;;;;;2080706;28;20192;-58
2022/06/01 02:56:38;;;;;;;14.85;13.57;;;;;;;;;;2083193;28;20648;-57
2022/06/01 02:57:40;;;;;;;15.50;14.10;;;;;;;;;;2083143;28;20203;-56
2022/06/01 02:58:41;;;;;;;16.05;14.52;;;;;;;;;;2083173;28;20175;-57
2022/06/01 02:59:42;;;;;;;15.60;14.10;;;;;;;;;;2083406;28;20211;-58
2022/06/01 03:00:42;;;;;;;16.55;14.88;;;;;;;;;;2083388;28;20179;-58
2022/06/01 03:01:43;;;;;;;15.65;14.10;;;;;;;;;;2083405;28;20644;-56
2022/06/01 03:02:54;;;;;;;15.45;13.90;;;;;;;;;;2082531;28;20203;-52
2022/06/01 03:03:54;;;;;;;16.08;14.68;;;;;;;;;;2081504;28;20188;-57
2022/06/01 03:04:54;;;;;;;16.13;14.63;;;;;;;;;;2081499;28;20188;-56
2022/06/01 03:05:54;;;;;;;16.23;14.77;;;;;;;;;;2082451;28;20199;-55
2022/06/01 03:06:55;;;;;;;16.50;14.90;;;;;;;;;;2082259;28;20548;-56
2022/06/01 03:07:56;;;;;;;15.40;13.90;;;;;;;;;;2082426;28;20236;-55
2022/06/01 03:08:56;;;;;;;14.85;13.55;;;;;;;;;;2082653;28;20180;-53
2022/06/01 03:09:56;;;;;;;15.38;14.02;;;;;;;;;;2082552;28;20180;-55
2022/06/01 03:10:57;;;;;;;16.58;15.05;;;;;;;;;;2082635;28;20263;-54
2022/06/01 03:11:57;;;;;;;16.38;14.90;;;;;;;;;;2082426;28;20217;-55
2022/06/01 03:12:57;;;;;;;16.58;15.07;;;;;;;;;;2082338;28;20246;-56
2022/06/01 03:13:57;;;;;;;16.92;15.15;;;;;;;;;;2081991;28;20191;-57
2022/06/01 03:14:58;;;;;;;16.15;14.73;;;;;;;;;;2081903;28;20168;-53
2022/06/01 03:15:58;;;;;;;16.15;14.80;;;;;;;;;;2082196;28;20260;-53
2022/06/01 03:16:58;;;;;;;16.88;15.27;;;;;;;;;;2082314;28;20184;-58
2022/06/01 03:17:59;;;;;;;16.60;14.90;;;;;;;;;;2082526;28;20172;-54
2022/06/01 03:18:59;;;;;;;16.27;14.75;;;;;;;;;;2082401;28;20172;-55
2022/06/01 03:20:00;;;;;;;15.70;14.30;;;;;;;;;;2081593;28;20251;-55
2022/06/01 03:21:00;;;;;;;16.25;14.77;;;;;;;;;;2081760;28;20168;-56
2022/06/01 03:22:01;;;;;;;16.27;14.77;;;;;;;;;;2082395;28;20160;-56
2022/06/01 03:23:01;;;;;;;16.40;15.00;;;;;;;;;;2082489;28;20207;-55
2022/06/01 03:24:02;;;;;;;15.98;14.57;;;;;;;;;;2081609;28;20209;-56
2022/06/01 03:25:03;;;;;;;16.98;15.57;;;;;;;;;;2082132;28;20176;-53
2022/06/01 03:26:03;;;;;;;15.93;14.63;;;;;;;;;;2082313;28;20712;-56
2022/06/01 03:27:03;;;;;;;15.70;14.30;;;;;;;;;;2082309;28;20211;-55
2022/06/01 03:28:05;;;;;;;17.33;15.65;;;;;;;;;;2082657;28;20168;-56
2022/06/01 03:29:05;;;;;;;16.55;14.85;;;;;;;;;;2082325;28;20164;-55
2022/06/01 03:30:08;;;;;;;16.63;15.10;;;;;;;;;;2082320;28;20180;-56
2022/06/01 03:31:08;;;;;;;17.58;16.08;;;;;;;;;;2082288;28;20176;-55
2022/06/01 03:32:08;;;;;;;18.00;16.30;;;;;;;;;;2082390;28;20668;-56
2022/06/01 03:33:09;;;;;;;17.23;15.55;;;;;;;;;;2082245;28;20176;-56
2022/06/01 03:34:10;;;;;;;17.92;16.23;;;;;;;;;;2081728;28;20160;-57
2022/06/01 03:35:11;;;;;;;18.40;16.73;;;;;;;;;;2082229;28;20548;-53
2022/06/01 03:36:11;;;;;;;18.02;16.35;;;;;;;;;;2081764;28;20255;-54
2022/06/01 03:37:11;;;;;;;17.38;15.77;;;;;;;;;;2081818;28;20267;-57
2022/06/01 03:38:12;;;;;;;18.20;16.67;;;;;;;;;;2082637;28;20550;-53
2022/06/01 03:39:12;;;;;;;17.23;15.65;;;;;;;;;;2077052;28;20592;-54
2022/06/01 03:40:13;;;;;;;17.52;15.98;;;;;;;;;;2081875;28;20177;-54
2022/06/01 03:41:13;;;;;;;17.75;16.15;;;;;;;;;;2082170;28;20243;-55
2022/06/01 03:42:14;;;;;;;17.70;16.20;;;;;;;;;;2082251;28;20708;-55
2022/06/01 03:43:14;;;;;;;18.15;16.48;;;;;;;;;;2082412;28;20187;-54
2022/06/01 03:46:52;;;;;;;19.23;17.45;;;;;;;;;;2081622;28;20188;-55
2022/06/01 03:47:55;;;;;;;18.02;16.35;;;;;;;;;;2082019;28;20176;-55
2022/06/01 03:48:55;;;;;;;17.65;15.95;;;;;;;;;;2082082;28;20165;-52
2022/06/01 03:49:55;;;;;;;18.45;16.65;;;;;;;;;;2082319;28;20699;-55
2022/06/01 03:50:56;;;;;;;17.10;15.52;;;;;;;;;;2082277;28;20165;-56
2022/06/01 03:51:57;;;;;;;17.92;16.38;;;;;;;;;;2082743;28;20172;-57
2022/06/01 03:52:57;;;;;;;18.88;17.13;;;;;;;;;;2081933;28;20299;-54
2022/06/01 03:53:57;;;;;;;18.30;16.60;;;;;;;;;;2082052;28;20184;-56
2022/06/01 03:54:57;;;;;;;18.65;16.73;;;;;;;;;;2081769;28;20680;-56
2022/06/01 03:55:58;;;;;;;17.55;15.98;;;;;;;;;;2082138;28;20654;-55
2022/06/01 03:56:58;;;;;;;17.70;16.13;;;;;;;;;;2082242;28;20288;-55
2022/06/01 03:57:58;;;;;;;18.55;16.70;;;;;;;;;;2080270;28;20168;-53
2022/06/01 03:58:59;;;;;;;18.15;16.55;;;;;;;;;;2082500;28;20160;-54
2022/06/01 03:59:59;;;;;;;18.15;16.50;;;;;;;;;;2082286;28;20226;-53
2022/06/01 04:00:59;;;;;;;18.45;16.65;;;;;;;;;;2081629;28;20669;-56
2022/06/01 04:02:01;;;;;;;17.48;15.85;;;;;;;;;;2081633;28;20578;-55
2022/06/01 04:03:01;;;;;;;17.63;16.13;;;;;;;;;;2081991;28;20179;-55
2022/06/01 04:04:01;;;;;;;17.60;16.13;;;;;;;;;;2081404;28;20550;-53
2022/06/01 04:05:02;;;;;;;18.85;17.25;;;;;;;;;;2081642;28;20640;-57
2022/06/01 04:06:02;;;;;;;18.38;16.67;;;;;;;;;;2081445;28;20164;-57
2022/06/01 04:07:03;;;;;;;18.20;16.60;;;;;;;;;;2081678;28;20703;-54
2022/06/01 04:08:03;;;;;;;17.67;16.02;;;;;;;;;;2081233;28;20172;-57
2022/06/01 04:09:03;;;;;;;18.90;17.15;;;;;;;;;;2081595;28;20179;-53
2022/06/01 04:10:04;;;;;;;17.88;16.30;;;;;;;;;;2081491;28;20242;-56
2022/06/01 04:11:04;;;;;;;18.48;16.88;;;;;;;;;;2081536;28;20637;-55
2022/06/01 04:12:04;;;;;;;19.52;17.52;;;;;;;;;;2082214;28;20183;-54
2022/06/01 04:13:05;;;;;;;18.15;16.35;;;;;;;;;;2081853;28;20204;-56
2022/06/01 04:14:05;;;;;;;19.27;17.58;;;;;;;;;;2081064;28;20179;-56
2022/06/01 04:15:08;;;;;;;18.50;16.65;;;;;;;;;;2081378;28;20367;-54
2022/06/01 04:16:09;;;;;;;18.48;16.75;;;;;;;;;;2082348;28;20692;-53
2022/06/01 04:17:09;;;;;;;18.75;16.95;;;;;;;;;;2082369;28;20203;-56
2022/06/01 04:18:09;;;;;;;19.50;17.63;;;;;;;;;;2082307;28;20164;-56
2022/06/01 04:19:09;;;;;;;19.23;17.38;;;;;;;;;;2082028;28;20204;-55
2022/06/01 04:20:10;;;;;;;19.38;17.30;;;;;;;;;;2081756;28;20176;-57
2022/06/01 04:21:11;;;;;;;19.08;17.27;;;;;;;;;;2081572;28;20156;-54
2022/06/01 04:22:12;;;;;;;19.77;17.92;;;;;;;;;;2082520;28;20179;-53
2022/06/01 04:23:12;;;;;;;19.45;17.65;;;;;;;;;;2082094;28;20255;-56
2022/06/01 04:24:14;;;;;;;18.65;16.95;;;;;;;;;;2081324;28;20184;-55
2022/06/01 04:25:17;;;;;;;19.23;17.55;;;;;;;;;;2082321;28;20183;-56
2022/06/01 04:26:17;;;;;;;19.88;17.95;;;;;;;;;;2081718;28;20180;-56
2022/06/01 04:27:18;;;;;;;18.08;16.50;;;;;;;;;;2081573;28;20192;-56
2022/06/01 04:28:18;;;;;;;19.42;17.65;;;;;;;;;;2082224;28;20168;-55
2022/06/01 04:29:19;;;;;;;19.70;17.73;;;;;;;;;;2081986;28;20545;-58
2022/06/01 04:30:20;;;;;;;19.55;17.73;;;;;;;;;;2082372;28;20165;-56
2022/06/01 04:31:21;;;;;;;19.25;17.55;;;;;;;;;;2082323;28;20180;-57
2022/06/01 04:32:26;;;;;;;17.67;16.27;;;;;;;;;;2082085;28;20160;-54
2022/06/01 04:33:26;;;;;;;20.15;18.23;;;;;;;;;;2082152;28;20165;-57
2022/06/01 04:34:27;;;;;;;19.20;17.40;;;;;;;;;;2081421;28;20180;-57
2022/06/01 04:35:27;;;;;;;20.23;18.13;;;;;;;;;;2081284;28;20167;-55
2022/06/01 04:36:27;;;;;;;19.80;18.00;;;;;;;;;;2081443;28;20176;-53
2022/06/01 04:37:28;;;;;;;17.90;16.13;;;;;;;;;;2081644;28;20271;-57
2022/06/01 04:38:28;;;;;;;18.83;17.08;;;;;;;;;;2081831;28;20175;-55
2022/06/01 04:39:28;;;;;;;19.77;17.92;;;;;;;;;;2081507;28;20219;-57
2022/06/01 04:40:29;;;;;;;18.20;16.58;;;;;;;;;;2082263;28;20180;-55
2022/06/01 04:41:30;;;;;;;20.23;18.42;;;;;;;;;;2083306;28;20259;-56
2022/06/01 04:42:30;;;;;;;18.95;17.35;;;;;;;;;;2082294;28;20242;-52
2022/06/01 04:43:30;;;;;;;19.60;17.83;;;;;;;;;;2081393;28;20176;-58
2022/06/01 04:44:31;;;;;;;20.63;18.63;;;;;;;;;;2080204;28;20325;-54
2022/06/01 04:45:31;;;;;;;20.67;18.77;;;;;;;;;;2079423;28;20204;-56
2022/06/01 04:46:31;;;;;;;22.45;20.27;;;;;;;;;;2081223;28;20184;-56
2022/06/01 04:47:31;;;;;;;21.60;19.60;;;;;;;;;;2081622;28;20254;-53
2022/06/01 04:48:32;;;;;;;22.17;20.08;;;;;;;;;;2081687;28;20211;-54
2022/06/01 04:49:32;;;;;;;22.00;19.95;;;;;;;;;;2073869;28;20173;-55
2022/06/01 04:50:33;;;;;;;23.33;21.23;;;;;;;;;;2083698;28;20186;-56
2022/06/01 04:51:34;;;;;;;23.30;21.10;;;;;;;;;;2081420;28;20175;-56
2022/06/01 04:52:35;;;;;;;23.05;20.75;;;;;;;;;;2080883;28;20752;-55
2022/06/01 04:53:35;;;;;;;23.40;21.10;;;;;;;;;;2082072;28;20216;-54
2022/06/01 04:54:35;;;;;;;23.10;20.80;;;;;;;;;;2084621;28;20250;-55
2022/06/01 04:55:35;;;;;;;24.20;21.73;;;;;;;;;;2083707;28;20179;-55
2022/06/01 04:56:36;;;;;;;24.73;22.23;;;;;;;;;;2079833;28;20265;-54
2022/06/01 04:57:37;;;;;;;24.58;22.10;;;;;;;;;;2081133;28;20581;-52
2022/06/01 04:58:38;;;;;;;24.15;21.75;;;;;;;;;;2081575;28;20181;-54
2022/06/01 04:59:38;;;;;;;23.88;21.50;;;;;;;;;;2081212;28;20164;-54
2022/06/01 05:00:39;;;;;;;23.98;21.50;;;;;;;;;;2081131;28;20255;-54
2022/06/01 05:01:39;;;;;;;23.00;20.60;;;;;;;;;;2076234;28;20169;-54
2022/06/01 05:02:39;;;;;;;22.90;20.70;;;;;;;;;;2064729;28;20260;-55
2022/06/01 05:03:40;;;;;;;23.50;21.20;;;;;;;;;;2065097;28;20677;-55
2022/06/01 05:04:40;;;;;;;23.30;21.10;;;;;;;;;;2072807;28;20646;-54
2022/06/01 05:05:41;;;;;;;21.40;19.35;;;;;;;;;;2073631;28;20204;-55
2022/06/01 05:06:41;;;;;;;22.63;20.52;;;;;;;;;;2073615;28;20707;-55
2022/06/01 05:07:42;;;;;;;22.80;20.58;;;;;;;;;;2073787;28;20180;-57
2022/06/01 05:08:42;;;;;;;23.15;20.77;;;;;;;;;;2073524;28;20219;-55
2022/06/01 05:09:42;;;;;;;23.02;20.63;;;;;;;;;;2075620;28;20173;-57
2022/06/01 05:10:43;;;;;;;22.77;20.65;;;;;;;;;;2082500;28;20180;-58
2022/06/01 05:11:43;;;;;;;22.58;20.58;;;;;;;;;;2082714;28;20168;-58
2022/06/01 05:12:43;;;;;;;23.52;21.15;;;;;;;;;;2081871;28;20192;-56
2022/06/01 05:13:44;;;;;;;23.05;20.85;;;;;;;;;;2080983;28;20182;-52
2022/06/01 05:14:44;;;;;;;22.00;19.90;;;;;;;;;;2080964;28;20195;-56
2022/06/01 05:15:46;;;;;;;22.42;20.13;;;;;;;;;;2081930;28;20180;-56
2022/06/01 05:16:46;;;;;;;23.73;21.38;;;;;;;;;;2081733;28;20168;-58
2022/06/01 05:17:47;;;;;;;22.70;20.65;;;;;;;;;;2081971;28;20250;-54
2022/06/01 05:18:47;;;;;;;24.77;22.33;;;;;;;;;;2080360;28;20180;-56
2022/06/01 05:19:47;;;;;;;21.80;19.80;;;;;;;;;;2081704;28;20284;-54
2022/06/01 05:20:48;;;;;;;22.73;20.50;;;;;;;;;;2081424;28;20249;-55
2022/06/01 05:21:48;;;;;;;22.80;20.63;;;;;;;;;;2081522;28;20247;-57
2022/06/01 05:22:48;;;;;;;23.38;20.88;;;;;;;;;;2081913;28;20179;-54
2022/06/01 05:23:49;;;;;;;23.23;21.13;;;;;;;;;;2081498;28;20164;-57
2022/06/01 05:24:49;;;;;;;23.35;21.23;;;;;;;;;;2080972;28;20198;-54
2022/06/01 05:25:50;;;;;;;22.90;20.63;;;;;;;;;;2072870;28;20173;-58
2022/06/01 05:26:51;;;;;;;22.20;20.17;;;;;;;;;;2073072;28;20708;-58
2022/06/01 05:27:51;;;;;;;22.70;20.63;;;;;;;;;;2081760;28;20180;-56
2022/06/01 05:28:51;;;;;;;21.75;19.55;;;;;;;;;;2081817;28;20188;-55
2022/06/01 05:29:51;;;;;;;21.92;19.83;;;;;;;;;;2081590;28;20214;-54
2022/06/01 05:31:11;;;;;;;22.05;19.95;;;;;;;;;;2081766;28;20160;-56
2022/06/01 05:32:11;;;;;;;22.35;20.25;;;;;;;;;;2081682;28;20175;-58
2022/06/01 05:33:11;;;;;;;21.35;19.38;;;;;;;;;;2081811;28;20164;-56
2022/06/01 05:34:11;;;;;;;21.95;19.77;;;;;;;;;;2079988;28;20259;-53
2022/06/01 05:35:12;;;;;;;21.40;19.42;;;;;;;;;;2080950;28;20176;-56
2022/06/01 05:36:13;;;;;;;22.27;20.08;;;;;;;;;;2081753;28;20256;-53
2022/06/01 05:37:13;;;;;;;21.23;19.23;;;;;;;;;;2077745;28;20200;-56
2022/06/01 05:38:13;;;;;;;21.80;19.90;;;;;;;;;;2081454;28;20654;-54
2022/06/01 05:39:13;;;;;;;20.88;18.98;;;;;;;;;;2079213;28;20260;-56
2022/06/01 05:40:14;;;;;;;21.55;19.60;;;;;;;;;;2081594;28;20290;-57
2022/06/01 05:41:14;;;;;;;21.33;19.20;;;;;;;;;;2081692;28;20164;-58
2022/06/01 05:42:15;;;;;;;20.58;18.73;;;;;;;;;;2079276;28;20206;-56
2022/06/01 05:43:16;;;;;;;21.05;19.13;;;;;;;;;;2080655;28;20164;-57
2022/06/01 05:44:16;;;;;;;21.23;19.17;;;;;;;;;;2080453;28;20176;-60
2022/06/01 05:45:17;;;;;;;19.70;17.90;;;;;;;;;;2081770;28;20302;-53
2022/06/01 05:46:18;;;;;;;21.25;19.27;;;;;;;;;;2081690;28;20176;-56
2022/06/01 05:47:18;;;;;;;21.80;19.80;;;;;;;;;;2081609;28;20208;-53
2022/06/01 05:48:19;;;;;;;21.20;19.10;;;;;;;;;;2081629;28;20172;-55
2022/06/01 05:49:19;;;;;;;22.40;20.20;;;;;;;;;;2081774;28;20176;-54
2022/06/01 05:50:19;;;;;;;21.65;19.67;;;;;;;;;;2081686;28;20259;-54
2022/06/01 05:51:20;;;;;;;21.50;19.55;;;;;;;;;;2081472;28;20172;-55
2022/06/01 05:52:21;;;;;;;21.77;19.85;;;;;;;;;;2081090;28;20223;-53
2022/06/01 05:53:21;;;;;;;22.45;20.50;;;;;;;;;;2081627;28;20574;-57
2022/06/01 05:54:21;;;;;;;20.75;18.73;;;;;;;;;;2080697;28;20458;-56
2022/06/01 05:55:21;;;;;;;21.25;19.25;;;;;;;;;;2078203;28;20248;-56
2022/06/01 05:56:22;;;;;;;21.05;19.15;;;;;;;;;;2081367;28;20176;-56
2022/06/01 05:57:22;;;;;;;24.08;20.25;;;;;;;;;;2081404;28;20764;-58
2022/06/01 05:58:23;;;;;;;21.27;19.25;;;;;;;;;;2081567;28;20259;-55
2022/06/01 05:59:24;;;;;;;21.42;19.52;;;;;;;;;;2080686;28;20191;-58
2022/06/01 06:00:24;;;;;;;21.33;19.42;;;;;;;;;;2072947;28;20176;-58
2022/06/01 06:01:24;;;;;;;21.80;19.75;;;;;;;;;;2072662;28;20257;-57
2022/06/01 06:02:24;;;;;;;21.02;19.02;;;;;;;;;;2080747;28;20164;-55
2022/06/01 06:03:25;;;;;;;21.73;19.73;;;;;;;;;;2081471;28;20199;-56
2022/06/01 06:04:26;;;;;;;21.02;19.17;;;;;;;;;;2080697;28;20629;-59
2022/06/01 06:06:45;;;;;;;23.30;21.10;;;;;;;;;;2081335;28;20164;-57
2022/06/01 06:07:45;;;;;;;22.10;20.00;;;;;;;;;;2081672;28;20196;-54
2022/06/01 06:08:48;;;;;;;23.25;21.05;;;;;;;;;;2081920;28;20644;-56